USNN 090900Z 19006MPS 9999 -SN OVC021 M15/M18 Q1006 R21/420361 NOSIG RMK QFE749
QNH:(hPa/inHg/mmHg)1006 / 29.71 / 755
QFE:(hPa/inHg/mmHg)999 / 29.51 / 750
Temperature-15
Dew Point-18
Visibility> 10000
WeatherLight Snow
Cloud CoverOVC (2100);
Transition Height800 m./2900 ft.
Transition LevelFL50
SQUAWK